Time;durP1;ratioP1;P1;durP2;ratioP2;P2;SDS_P1;SDS_P2;PMS_P1;PMS_P2;Temp;Humidity;BMP_temperature;BMP_pressure;BME280_temperature;BME280_humidity;BME280_pressure;Samples;Min_cycle;Max_cycle;Signal;HPM_P1;HPM_P2
2022/01/23 00:00:57;;;;;;;83.50;42.05;;;;;;;;;;5079197;28;20119;-72
2022/01/23 00:03:23;;;;;;;64.78;32.63;;;;;;;;;;5089067;28;20031;-73
2022/01/23 00:05:51;;;;;;;57.42;30.27;;;;;;;;;;5085532;28;20111;-72
2022/01/23 00:08:21;;;;;;;49.25;26.77;;;;;;;;;;5091276;28;20368;-72
2022/01/23 00:10:47;;;;;;;43.45;22.63;;;;;;;;;;5092320;28;20028;-73
2022/01/23 00:13:28;;;;;;;44.88;25.13;;;;;;;;;;5090586;28;20028;-73
2022/01/23 00:18:39;;;;;;;46.55;24.95;;;;;;;;;;5090233;28;20105;-72
2022/01/23 00:21:05;;;;;;;48.95;26.17;;;;;;;;;;5087152;28;20114;-72
2022/01/23 00:31:27;;;;;;;172.93;66.30;;;;;;;;;;5084986;28;20039;-72
2022/01/23 00:33:54;;;;;;;175.23;65.32;;;;;;;;;;5089656;28;20032;-72
2022/01/23 00:36:21;;;;;;;160.55;63.80;;;;;;;;;;5086199;28;20036;-72
2022/01/23 00:38:48;;;;;;;124.22;51.45;;;;;;;;;;5083822;28;20483;-72
2022/01/23 00:41:14;;;;;;;99.45;42.67;;;;;;;;;;5088451;28;20060;-73
2022/01/23 00:43:42;;;;;;;69.55;29.30;;;;;;;;;;5091196;28;20043;-72
2022/01/23 00:49:03;;;;;;;42.35;19.83;;;;;;;;;;5090488;28;20086;-72
2022/01/23 00:51:34;;;;;;;41.20;19.70;;;;;;;;;;5087972;28;20032;-73
2022/01/23 00:54:00;;;;;;;37.60;17.20;;;;;;;;;;5090262;28;20873;-72
2022/01/23 00:56:27;;;;;;;36.25;17.65;;;;;;;;;;5088449;28;20115;-72
2022/01/23 00:58:53;;;;;;;36.83;17.08;;;;;;;;;;5085283;28;20055;-72
2022/01/23 01:01:19;;;;;;;38.15;19.00;;;;;;;;;;5088272;28;20451;-73
2022/01/23 01:03:45;;;;;;;32.90;15.15;;;;;;;;;;5085602;28;20028;-72
2022/01/23 01:06:11;;;;;;;35.70;19.27;;;;;;;;;;5088312;28;20032;-72
2022/01/23 01:08:38;;;;;;;37.78;22.13;;;;;;;;;;5090467;28;20036;-72
2022/01/23 01:30:23;;;;;;;26.88;15.32;;;;;;;;;;5088922;28;20120;-72
2022/01/23 01:35:25;;;;;;;37.45;17.40;;;;;;;;;;5089801;28;20622;-72
2022/01/23 01:37:51;;;;;;;35.83;18.05;;;;;;;;;;5089548;28;20032;-72
2022/01/23 01:40:18;;;;;;;37.38;19.13;;;;;;;;;;5086953;28;20020;-72
2022/01/23 01:42:45;;;;;;;39.10;20.05;;;;;;;;;;5087065;28;20028;-72
2022/01/23 01:45:11;;;;;;;58.55;29.75;;;;;;;;;;5086845;28;20032;-72
2022/01/23 01:47:37;;;;;;;54.13;23.75;;;;;;;;;;5089145;28;20487;-72
2022/01/23 01:50:04;;;;;;;40.67;20.23;;;;;;;;;;5086896;28;20465;-72
2022/01/23 01:52:32;;;;;;;39.47;18.25;;;;;;;;;;5088929;28;20059;-72
2022/01/23 01:55:02;;;;;;;36.83;18.38;;;;;;;;;;5089777;28;20115;-72
2022/01/23 01:57:35;;;;;;;34.97;17.98;;;;;;;;;;5089127;28;20043;-72
2022/01/23 02:00:36;;;;;;;39.80;20.27;;;;;;;;;;5088177;28;20107;-72
2022/01/23 02:10:48;;;;;;;39.63;19.30;;;;;;;;;;5088851;28;20073;-72
2022/01/23 02:13:16;;;;;;;38.30;16.85;;;;;;;;;;5085525;28;20040;-72
2022/01/23 02:18:25;;;;;;;33.47;17.40;;;;;;;;;;5088722;28;20480;-72
2022/01/23 02:51:27;;;;;;;30.58;15.27;;;;;;;;;;5089063;28;20794;-72
2022/01/23 02:54:18;;;;;;;40.20;18.40;;;;;;;;;;5088182;28;20068;-72
2022/01/23 02:56:44;;;;;;;28.98;15.23;;;;;;;;;;5088657;28;20036;-72
2022/01/23 02:59:21;;;;;;;29.40;14.38;;;;;;;;;;5087687;28;20123;-72
2022/01/23 03:04:51;;;;;;;31.40;15.38;;;;;;;;;;5022878;28;20045;-72
2022/01/23 03:09:54;;;;;;;28.88;14.70;;;;;;;;;;5089067;28;20040;-72
2022/01/23 03:15:03;;;;;;;26.38;14.02;;;;;;;;;;5081005;28;20110;-72
2022/01/23 03:31:24;;;;;;;27.38;14.15;;;;;;;;;;5088694;28;20132;-72
2022/01/23 03:33:50;;;;;;;26.77;13.35;;;;;;;;;;5084502;28;20381;-72
2022/01/23 03:36:16;;;;;;;30.60;15.05;;;;;;;;;;5088847;28;20477;-72
2022/01/23 03:38:43;;;;;;;28.30;13.07;;;;;;;;;;5080015;28;20035;-72
2022/01/23 03:41:10;;;;;;;27.75;13.90;;;;;;;;;;5088367;28;20468;-73
2022/01/23 03:43:38;;;;;;;28.33;13.40;;;;;;;;;;5087789;28;20055;-72
2022/01/23 03:51:16;;;;;;;32.33;15.90;;;;;;;;;;5088773;28;20055;-72
2022/01/23 03:53:43;;;;;;;31.27;15.80;;;;;;;;;;5088142;28;20489;-72
2022/01/23 03:56:09;;;;;;;30.00;14.50;;;;;;;;;;5088794;28;20036;-72
2022/01/23 03:58:35;;;;;;;29.92;15.45;;;;;;;;;;5088155;28;20043;-72
2022/01/23 04:01:01;;;;;;;34.35;14.73;;;;;;;;;;5088740;28;20157;-72
2022/01/23 04:03:27;;;;;;;28.38;14.57;;;;;;;;;;5087361;28;20034;-72
2022/01/23 04:05:53;;;;;;;36.00;17.10;;;;;;;;;;5088671;28;20098;-72
2022/01/23 04:08:21;;;;;;;33.55;16.33;;;;;;;;;;5080875;28;20098;-72
2022/01/23 04:10:47;;;;;;;32.55;15.13;;;;;;;;;;5092129;28;20082;-72
2022/01/23 04:13:22;;;;;;;30.95;15.82;;;;;;;;;;5090765;28;20039;-72
2022/01/23 04:15:55;;;;;;;34.38;16.88;;;;;;;;;;5092149;28;20039;-72
2022/01/23 04:32:34;;;;;;;34.47;15.60;;;;;;;;;;5091908;28;20050;-71
2022/01/23 04:46:24;;;;;;;34.00;17.13;;;;;;;;;;5049189;28;20037;-72
2022/01/23 05:00:00;;;;;;;33.60;17.33;;;;;;;;;;5091210;28;20370;-72
2022/01/23 05:05:11;;;;;;;29.25;15.15;;;;;;;;;;5091301;28;20123;-72
2022/01/23 05:07:40;;;;;;;30.25;14.82;;;;;;;;;;5090653;28;20075;-72
2022/01/23 05:10:06;;;;;;;35.92;15.48;;;;;;;;;;5091273;28;20036;-72
2022/01/23 05:12:34;;;;;;;28.05;14.05;;;;;;;;;;5090015;28;20066;-72
2022/01/23 05:15:00;;;;;;;33.17;15.90;;;;;;;;;;5091008;28;20653;-72
2022/01/23 05:17:26;;;;;;;26.05;12.35;;;;;;;;;;5072031;28;20514;-72
2022/01/23 05:19:52;;;;;;;32.53;13.82;;;;;;;;;;5069839;28;20574;-72
2022/01/23 05:22:42;;;;;;;33.83;16.48;;;;;;;;;;5087908;28;20063;-71
2022/01/23 05:27:35;;;;;;;27.73;14.40;;;;;;;;;;5085294;28;20474;-72
2022/01/23 05:30:01;;;;;;;29.55;15.57;;;;;;;;;;5090765;28;20032;-72
2022/01/23 05:32:34;;;;;;;27.38;14.38;;;;;;;;;;5090272;28;20036;-72
2022/01/23 05:35:00;;;;;;;32.80;16.73;;;;;;;;;;5090644;28;20039;-72
2022/01/23 05:37:26;;;;;;;28.98;14.40;;;;;;;;;;5089557;28;20032;-72
2022/01/23 05:39:52;;;;;;;30.50;13.98;;;;;;;;;;5084601;28;20830;-72
2022/01/23 05:42:18;;;;;;;26.80;13.18;;;;;;;;;;5081880;28;20044;-72
2022/01/23 05:44:44;;;;;;;31.10;15.98;;;;;;;;;;5089822;28;20102;-72
2022/01/23 05:47:11;;;;;;;29.77;15.48;;;;;;;;;;5088718;28;20044;-72
2022/01/23 05:49:37;;;;;;;28.55;14.95;;;;;;;;;;5090134;28;20906;-72
2022/01/23 05:52:04;;;;;;;29.42;13.35;;;;;;;;;;5089866;28;20028;-72
2022/01/23 05:54:30;;;;;;;25.90;14.75;;;;;;;;;;5078056;28;20032;-72
2022/01/23 05:56:56;;;;;;;22.67;12.63;;;;;;;;;;5088353;28;20089;-72
2022/01/23 05:59:22;;;;;;;29.50;14.40;;;;;;;;;;5089411;28;20069;-72
2022/01/23 06:01:55;;;;;;;29.75;13.88;;;;;;;;;;5089969;28;20051;-72
2022/01/23 06:04:21;;;;;;;;;;;;;;;;;;5089180;28;20065;-72
2022/01/23 06:06:47;;;;;;;32.50;15.65;;;;;;;;;;5089624;28;19916;-72
2022/01/23 06:09:13;;;;;;;31.95;15.85;;;;;;;;;;5088995;28;20028;-72
2022/01/23 06:11:39;;;;;;;30.67;15.68;;;;;;;;;;5089949;28;20206;-72
2022/01/23 06:14:08;;;;;;;31.48;13.68;;;;;;;;;;5088747;28;20038;-72
2022/01/23 06:16:34;;;;;;;28.60;13.52;;;;;;;;;;5089000;28;20043;-72
2022/01/23 06:19:00;;;;;;;27.23;13.07;;;;;;;;;;5076946;28;20048;-72
2022/01/23 06:21:27;;;;;;;24.52;12.30;;;;;;;;;;5082688;28;20024;-73
2022/01/23 06:24:04;;;;;;;21.92;11.35;;;;;;;;;;5087578;28;20051;-72
2022/01/23 06:26:38;;;;;;;83.97;42.17;;;;;;;;;;5079391;28;20020;-72
2022/01/23 06:29:04;;;;;;;86.00;42.45;;;;;;;;;;5088844;28;20043;-72
2022/01/23 06:31:32;;;;;;;68.07;35.42;;;;;;;;;;5083889;28;20459;-72
2022/01/23 06:33:58;;;;;;;45.28;22.60;;;;;;;;;;5085585;28;20150;-72
2022/01/23 06:36:24;;;;;;;40.10;23.35;;;;;;;;;;5084827;28;20029;-72
2022/01/23 06:38:50;;;;;;;58.92;30.33;;;;;;;;;;5088925;28;20403;-72
2022/01/23 06:41:16;;;;;;;43.95;23.08;;;;;;;;;;5088653;28;20028;-72
2022/01/23 06:43:42;;;;;;;39.22;21.35;;;;;;;;;;5089399;28;20028;-72
2022/01/23 06:46:08;;;;;;;33.67;16.50;;;;;;;;;;5087690;28;20113;-71
2022/01/23 06:48:34;;;;;;;31.58;15.20;;;;;;;;;;5089157;28;20032;-73
2022/01/23 06:51:00;;;;;;;29.58;15.45;;;;;;;;;;5088084;28;20032;-72
2022/01/23 06:53:26;;;;;;;26.50;13.98;;;;;;;;;;5077618;28;20107;-72
2022/01/23 06:55:52;;;;;;;27.77;14.75;;;;;;;;;;5082334;28;20768;-72
2022/01/23 06:58:18;;;;;;;30.52;15.02;;;;;;;;;;5088398;28;20097;-72
2022/01/23 07:00:44;;;;;;;30.48;15.68;;;;;;;;;;5088414;28;20482;-72
2022/01/23 07:03:12;;;;;;;29.40;15.32;;;;;;;;;;5085224;28;20036;-72
2022/01/23 07:05:38;;;;;;;28.13;14.85;;;;;;;;;;5088067;28;20028;-72
2022/01/23 07:08:04;;;;;;;28.02;14.77;;;;;;;;;;5079920;28;20110;-72
2022/01/23 07:10:30;;;;;;;29.67;14.57;;;;;;;;;;5075480;28;20036;-72
2022/01/23 07:12:56;;;;;;;24.95;13.63;;;;;;;;;;5088279;28;20102;-72
2022/01/23 07:15:22;;;;;;;28.75;14.55;;;;;;;;;;5075824;28;20777;-72
2022/01/23 07:17:48;;;;;;;32.75;15.52;;;;;;;;;;5076842;28;20077;-72
2022/01/23 07:20:14;;;;;;;25.23;14.23;;;;;;;;;;5089087;28;20122;-72
2022/01/23 07:22:40;;;;;;;28.90;14.75;;;;;;;;;;5088062;28;20177;-72
2022/01/23 07:25:07;;;;;;;30.23;15.88;;;;;;;;;;5088662;28;20096;-73
2022/01/23 07:27:41;;;;;;;27.50;13.70;;;;;;;;;;5087285;28;20077;-72
2022/01/23 07:30:19;;;;;;;25.33;15.00;;;;;;;;;;5086484;28;20032;-72
2022/01/23 07:32:45;;;;;;;33.75;16.00;;;;;;;;;;5088661;28;20475;-72
2022/01/23 07:35:11;;;;;;;28.02;14.60;;;;;;;;;;5072760;28;20043;-72
2022/01/23 07:37:37;;;;;;;24.83;13.05;;;;;;;;;;5088949;28;20040;-73
2022/01/23 07:40:03;;;;;;;26.77;15.52;;;;;;;;;;5084181;28;20359;-72
2022/01/23 07:42:29;;;;;;;27.52;13.90;;;;;;;;;;5085007;28;20139;-72
2022/01/23 07:44:55;;;;;;;27.98;14.23;;;;;;;;;;5084041;28;20110;-72
2022/01/23 07:47:22;;;;;;;28.33;15.60;;;;;;;;;;5092310;28;20586;-72
2022/01/23 07:49:49;;;;;;;25.73;13.82;;;;;;;;;;5091297;28;20036;-72
2022/01/23 07:52:16;;;;;;;25.88;14.23;;;;;;;;;;5092316;28;20032;-72
2022/01/23 07:54:42;;;;;;;29.08;15.82;;;;;;;;;;5090128;28;20028;-73
2022/01/23 07:57:08;;;;;;;26.02;13.50;;;;;;;;;;5090398;28;20051;-72
2022/01/23 07:59:34;;;;;;;25.92;14.57;;;;;;;;;;5091019;28;20052;-72
2022/01/23 08:02:01;;;;;;;30.10;15.73;;;;;;;;;;5089500;28;20472;-73
2022/01/23 08:04:27;;;;;;;29.80;14.90;;;;;;;;;;5090759;28;20016;-73
2022/01/23 08:07:21;;;;;;;28.60;14.52;;;;;;;;;;5091248;28;20124;-73
2022/01/23 08:09:42;;;;;;;28.95;14.85;;;;;;;;;;5089954;28;20479;-72
2022/01/23 08:12:08;;;;;;;32.20;18.70;;;;;;;;;;5090329;28;20028;-73
2022/01/23 08:14:34;;;;;;;31.00;17.90;;;;;;;;;;5087714;28;20024;-74
2022/01/23 08:17:00;;;;;;;35.42;19.75;;;;;;;;;;5089523;28;20446;-72
2022/01/23 08:19:26;;;;;;;33.65;19.08;;;;;;;;;;5089637;28;20036;-71
2022/01/23 08:21:52;;;;;;;43.60;20.90;;;;;;;;;;5085617;28;20047;-72
2022/01/23 08:24:18;;;;;;;40.30;20.92;;;;;;;;;;5090887;28;20020;-72
2022/01/23 08:26:44;;;;;;;34.63;19.35;;;;;;;;;;5091077;28;20032;-72
2022/01/23 08:29:10;;;;;;;35.90;18.45;;;;;;;;;;5088348;28;20160;-74
2022/01/23 08:31:36;;;;;;;31.58;17.55;;;;;;;;;;5089415;28;20546;-73
2022/01/23 08:34:02;;;;;;;32.83;19.17;;;;;;;;;;5091062;28;20389;-72
2022/01/23 08:36:31;;;;;;;36.10;20.52;;;;;;;;;;5089170;28;20024;-73
2022/01/23 08:38:59;;;;;;;40.67;21.25;;;;;;;;;;5087730;28;20028;-72
2022/01/23 08:44:14;;;;;;;37.78;21.13;;;;;;;;;;5087410;28;20039;-73
2022/01/23 08:46:41;;;;;;;39.80;22.70;;;;;;;;;;5072421;28;20044;-72
2022/01/23 08:49:07;;;;;;;33.58;20.50;;;;;;;;;;5090406;28;20028;-73
2022/01/23 08:51:33;;;;;;;40.38;23.20;;;;;;;;;;5090718;28;20077;-73
2022/01/23 08:53:59;;;;;;;38.67;23.58;;;;;;;;;;5090594;28;20032;-73
2022/01/23 08:56:26;;;;;;;40.20;25.17;;;;;;;;;;5089259;28;20076;-72
2022/01/23 08:58:52;;;;;;;53.60;32.17;;;;;;;;;;5090426;28;20074;-72
2022/01/23 09:01:18;;;;;;;68.22;35.88;;;;;;;;;;5090145;28;20065;-72
2022/01/23 09:03:45;;;;;;;52.20;30.33;;;;;;;;;;5090993;28;20035;-73
2022/01/23 09:06:11;;;;;;;46.50;29.15;;;;;;;;;;5089352;28;20057;-73
2022/01/23 09:08:38;;;;;;;58.78;30.05;;;;;;;;;;5091237;28;20032;-72
2022/01/23 09:11:24;;;;;;;47.15;28.05;;;;;;;;;;5087484;28;21365;-72
2022/01/23 09:16:17;;;;;;;38.05;24.23;;;;;;;;;;5081151;28;20078;-73
2022/01/23 09:18:43;;;;;;;41.72;27.85;;;;;;;;;;5074071;28;20056;-73
2022/01/23 09:21:09;;;;;;;43.65;30.65;;;;;;;;;;5090275;28;20028;-72
2022/01/23 09:23:35;;;;;;;73.30;46.53;;;;;;;;;;5090866;28;20024;-73
2022/01/23 09:26:08;;;;;;;85.03;49.13;;;;;;;;;;5090603;28;20080;-73
2022/01/23 09:28:34;;;;;;;64.13;38.30;;;;;;;;;;5090541;28;20028;-73
2022/01/23 09:31:01;;;;;;;43.33;25.85;;;;;;;;;;5091014;28;20051;-73
2022/01/23 09:33:28;;;;;;;57.35;31.52;;;;;;;;;;5090978;28;20564;-73
2022/01/23 09:35:54;;;;;;;53.53;29.20;;;;;;;;;;5089759;28;20040;-73
2022/01/23 09:38:21;;;;;;;41.30;25.45;;;;;;;;;;5087729;28;20040;-73
2022/01/23 09:40:49;;;;;;;34.88;21.98;;;;;;;;;;5087402;28;20036;-73
2022/01/23 09:43:20;;;;;;;37.25;22.13;;;;;;;;;;5090564;28;20103;-72
2022/01/23 09:45:47;;;;;;;33.25;21.10;;;;;;;;;;5086203;28;20036;-72
2022/01/23 09:48:14;;;;;;;37.25;20.92;;;;;;;;;;5086125;28;20050;-73
2022/01/23 09:50:41;;;;;;;29.13;18.95;;;;;;;;;;5090406;28;20471;-73
2022/01/23 09:53:07;;;;;;;32.85;18.10;;;;;;;;;;5085630;28;20032;-72
2022/01/23 09:55:33;;;;;;;40.38;22.95;;;;;;;;;;5067216;28;20035;-73
2022/01/23 09:58:00;;;;;;;39.88;23.70;;;;;;;;;;5086188;28;20039;-73
2022/01/23 10:00:28;;;;;;;28.75;18.17;;;;;;;;;;5089185;28;20028;-72
2022/01/23 10:02:54;;;;;;;32.42;19.25;;;;;;;;;;5088770;28;20389;-73
2022/01/23 10:05:20;;;;;;;37.95;22.63;;;;;;;;;;5089657;28;20047;-73
2022/01/23 10:07:47;;;;;;;33.05;22.08;;;;;;;;;;5086410;28;20485;-73
2022/01/23 10:10:18;;;;;;;33.75;22.15;;;;;;;;;;5089079;28;20088;-73
2022/01/23 10:12:50;;;;;;;30.20;18.48;;;;;;;;;;5088941;28;20708;-73
2022/01/23 10:15:16;;;;;;;25.83;15.65;;;;;;;;;;5089569;28;20036;-72
2022/01/23 10:17:42;;;;;;;21.23;13.32;;;;;;;;;;5076115;28;20037;-72
2022/01/23 10:20:09;;;;;;;22.77;11.95;;;;;;;;;;5087960;28;20048;-72
2022/01/23 10:22:36;;;;;;;21.40;12.00;;;;;;;;;;5089703;28;20028;-72
2022/01/23 10:25:29;;;;;;;31.52;16.60;;;;;;;;;;5089570;28;20027;-73
2022/01/23 10:28:04;;;;;;;36.28;21.63;;;;;;;;;;5077214;28;20048;-72
2022/01/23 10:30:34;;;;;;;27.92;15.10;;;;;;;;;;5086161;28;20746;-73
2022/01/23 10:33:00;;;;;;;17.13;10.02;;;;;;;;;;5089200;28;20118;-73
2022/01/23 10:35:26;;;;;;;20.63;9.80;;;;;;;;;;5070353;28;20496;-73
2022/01/23 10:37:52;;;;;;;17.88;9.80;;;;;;;;;;5089046;28;20032;-73
2022/01/23 10:40:22;;;;;;;26.98;12.88;;;;;;;;;;5089796;28;20030;-73
2022/01/23 10:48:36;;;;;;;19.02;11.77;;;;;;;;;;5080018;28;20043;-73
2022/01/23 10:51:17;;;;;;;16.15;9.23;;;;;;;;;;5084259;28;20035;-73
2022/01/23 10:54:02;;;;;;;18.65;10.52;;;;;;;;;;5086824;28;20090;-71
2022/01/23 10:56:30;;;;;;;19.35;9.68;;;;;;;;;;5068087;28;20029;-72
2022/01/23 10:59:22;;;;;;;16.10;8.35;;;;;;;;;;5077042;28;20036;-71
2022/01/23 11:02:11;;;;;;;9.95;5.18;;;;;;;;;;5069482;28;20043;-72
2022/01/23 11:04:51;;;;;;;11.73;6.50;;;;;;;;;;5081475;28;20077;-72
2022/01/23 11:07:17;;;;;;;14.15;6.15;;;;;;;;;;5088515;28;20035;-72
2022/01/23 11:09:43;;;;;;;13.20;5.53;;;;;;;;;;5087553;28;20036;-72
2022/01/23 11:12:28;;;;;;;12.38;6.30;;;;;;;;;;5088373;28;20035;-72
2022/01/23 11:17:50;;;;;;;10.60;5.70;;;;;;;;;;5075656;28;20497;-73
2022/01/23 11:20:29;;;;;;;13.00;6.10;;;;;;;;;;5083573;28;20349;-73
2022/01/23 11:23:10;;;;;;;18.80;8.63;;;;;;;;;;5087727;28;20028;-73
2022/01/23 11:25:36;;;;;;;23.83;13.43;;;;;;;;;;5080818;28;20498;-73
2022/01/23 11:28:03;;;;;;;21.27;12.65;;;;;;;;;;5085276;28;20036;-73
2022/01/23 11:30:45;;;;;;;16.52;10.20;;;;;;;;;;5085399;28;20386;-73
2022/01/23 11:33:13;;;;;;;18.80;9.75;;;;;;;;;;5090231;28;20032;-73
2022/01/23 11:35:40;;;;;;;17.15;10.75;;;;;;;;;;5091595;28;20032;-73
2022/01/23 11:38:16;;;;;;;19.40;11.10;;;;;;;;;;5090835;28;20035;-72
2022/01/23 11:54:42;;;;;;;21.83;12.85;;;;;;;;;;5091273;28;20043;-73
2022/01/23 11:57:26;;;;;;;24.17;12.57;;;;;;;;;;5091037;28;20039;-73
2022/01/23 11:59:52;;;;;;;20.90;10.50;;;;;;;;;;5087727;28;20029;-73
2022/01/23 12:02:53;;;;;;;19.73;11.05;;;;;;;;;;5088368;28;20034;-73
2022/01/23 12:05:12;;;;;;;19.13;11.25;;;;;;;;;;5085355;28;20490;-73
2022/01/23 12:07:40;;;;;;;18.85;11.43;;;;;;;;;;5091201;28;20889;-73
2022/01/23 12:10:22;;;;;;;22.20;12.02;;;;;;;;;;5084090;28;20143;-73
2022/01/23 12:12:51;;;;;;;22.50;13.85;;;;;;;;;;5090677;28;20028;-73
2022/01/23 12:18:20;;;;;;;25.17;14.10;;;;;;;;;;5086013;28;20076;-72
2022/01/23 12:20:47;;;;;;;21.15;11.82;;;;;;;;;;5083079;28;20043;-72
2022/01/23 12:23:16;;;;;;;16.90;10.75;;;;;;;;;;5090509;28;20020;-72
2022/01/23 12:25:44;;;;;;;15.90;10.23;;;;;;;;;;5089075;28;20490;-72
2022/01/23 12:28:12;;;;;;;19.48;11.63;;;;;;;;;;5088167;28;20036;-73
2022/01/23 12:30:38;;;;;;;20.85;12.07;;;;;;;;;;5090065;28;20043;-73
2022/01/23 12:33:10;;;;;;;22.17;13.10;;;;;;;;;;5081618;28;20032;-73
2022/01/23 12:35:40;;;;;;;26.55;14.25;;;;;;;;;;5091251;28;20043;-74
2022/01/23 12:38:09;;;;;;;21.33;11.90;;;;;;;;;;5089751;28;20028;-73
2022/01/23 12:40:36;;;;;;;18.48;10.63;;;;;;;;;;5089327;28;20537;-73
2022/01/23 12:43:07;;;;;;;19.10;10.20;;;;;;;;;;5089671;28;20035;-73
2022/01/23 12:45:44;;;;;;;16.83;9.35;;;;;;;;;;5085197;28;20727;-73
2022/01/23 12:48:25;;;;;;;20.80;10.63;;;;;;;;;;5090899;28;20683;-73
2022/01/23 12:50:53;;;;;;;17.23;10.27;;;;;;;;;;5075823;28;20093;-73
2022/01/23 12:53:19;;;;;;;18.55;9.75;;;;;;;;;;5071173;28;20455;-73
2022/01/23 12:56:03;;;;;;;22.35;13.32;;;;;;;;;;5085250;28;20078;-72
2022/01/23 12:58:32;;;;;;;20.92;10.88;;;;;;;;;;5091818;28;20063;-73
2022/01/23 13:00:59;;;;;;;19.23;12.45;;;;;;;;;;5090034;28;20035;-73
2022/01/23 13:03:26;;;;;;;22.33;11.20;;;;;;;;;;5091857;28;20031;-73
2022/01/23 13:05:52;;;;;;;20.58;10.25;;;;;;;;;;5091053;28;20131;-73
2022/01/23 13:08:25;;;;;;;21.42;11.93;;;;;;;;;;5091436;28;20028;-73
2022/01/23 13:11:44;;;;;;;19.90;12.70;;;;;;;;;;5072270;28;20115;-73
2022/01/23 13:13:49;;;;;;;18.95;11.45;;;;;;;;;;5090715;28;20036;-73
2022/01/23 13:16:27;;;;;;;18.65;9.85;;;;;;;;;;5083211;28;20069;-73
2022/01/23 13:30:22;;;;;;;24.75;13.02;;;;;;;;;;5050800;28;20486;-73
2022/01/23 13:32:51;;;;;;;18.73;11.60;;;;;;;;;;5090940;28;20024;-73
2022/01/23 13:35:18;;;;;;;20.83;10.40;;;;;;;;;;5089947;28;20061;-73
2022/01/23 13:37:46;;;;;;;23.33;13.80;;;;;;;;;;5086755;28;20097;-73
2022/01/23 13:40:22;;;;;;;19.42;10.70;;;;;;;;;;5089296;28;20032;-73
2022/01/23 13:48:39;;;;;;;17.10;7.63;;;;;;;;;;5079215;28;20047;-72
2022/01/23 14:04:31;;;;;;;29.73;13.15;;;;;;;;;;5089208;28;20055;-73
2022/01/23 14:06:57;;;;;;;32.63;14.48;;;;;;;;;;5089647;28;20699;-73
2022/01/23 14:09:26;;;;;;;28.85;14.68;;;;;;;;;;5090283;28;20096;-73
2022/01/23 14:11:52;;;;;;;33.70;16.73;;;;;;;;;;5085845;28;20028;-73
2022/01/23 14:14:22;;;;;;;31.20;15.40;;;;;;;;;;5090148;28;20359;-72
2022/01/23 14:16:50;;;;;;;26.10;15.27;;;;;;;;;;5088590;28;20824;-73
2022/01/23 14:19:18;;;;;;;29.90;15.90;;;;;;;;;;5089371;28;20062;-73
2022/01/23 14:21:45;;;;;;;28.52;16.38;;;;;;;;;;5089478;28;20027;-73
2022/01/23 14:24:11;;;;;;;26.98;15.60;;;;;;;;;;5087977;28;20075;-73
2022/01/23 14:26:37;;;;;;;22.38;13.38;;;;;;;;;;5088619;28;20032;-72
2022/01/23 14:29:06;;;;;;;22.80;12.32;;;;;;;;;;5089026;28;20040;-72
2022/01/23 14:31:38;;;;;;;25.25;12.73;;;;;;;;;;5089343;28;20024;-73
2022/01/23 14:34:23;;;;;;;26.02;13.43;;;;;;;;;;5088683;28;20070;-73
2022/01/23 14:36:55;;;;;;;24.65;13.63;;;;;;;;;;5068819;28;20056;-73
2022/01/23 14:39:23;;;;;;;28.48;14.15;;;;;;;;;;5071611;28;20542;-73
2022/01/23 14:41:49;;;;;;;24.02;13.63;;;;;;;;;;5077252;28;20031;-73
2022/01/23 14:44:17;;;;;;;27.10;13.60;;;;;;;;;;5088457;28;20032;-73
2022/01/23 14:46:45;;;;;;;28.73;15.07;;;;;;;;;;5089771;28;20463;-73
2022/01/23 14:49:21;;;;;;;37.85;21.27;;;;;;;;;;5088841;28;20150;-73
2022/01/23 14:51:47;;;;;;;43.00;21.15;;;;;;;;;;5076278;28;20088;-72
2022/01/23 14:54:13;;;;;;;65.25;32.75;;;;;;;;;;5088975;28;20031;-73
2022/01/23 14:56:40;;;;;;;63.85;33.58;;;;;;;;;;5079373;28;20035;-73
2022/01/23 14:59:10;;;;;;;47.42;25.00;;;;;;;;;;5079648;28;20097;-73
2022/01/23 15:01:36;;;;;;;58.70;32.03;;;;;;;;;;5074523;28;20028;-73
2022/01/23 15:04:05;;;;;;;59.88;31.73;;;;;;;;;;5088837;28;20482;-73
2022/01/23 15:06:31;;;;;;;51.72;28.23;;;;;;;;;;5084103;28;20683;-73
2022/01/23 15:09:24;;;;;;;45.83;22.90;;;;;;;;;;5083802;28;20154;-73
2022/01/23 15:11:51;;;;;;;36.92;21.70;;;;;;;;;;5084849;28;20067;-73
2022/01/23 15:14:18;;;;;;;39.85;22.58;;;;;;;;;;5088934;28;20036;-73
2022/01/23 15:16:44;;;;;;;35.10;20.30;;;;;;;;;;5088682;28;20544;-73
2022/01/23 15:19:10;;;;;;;24.58;15.02;;;;;;;;;;5088328;28;20059;-73
2022/01/23 15:21:36;;;;;;;29.33;16.63;;;;;;;;;;5087807;28;20052;-73
2022/01/23 15:24:03;;;;;;;31.42;18.83;;;;;;;;;;5088219;28;20457;-73
2022/01/23 15:26:31;;;;;;;34.55;17.48;;;;;;;;;;5087593;28;20103;-73
2022/01/23 15:28:57;;;;;;;35.88;20.88;;;;;;;;;;5088318;28;20497;-73
2022/01/23 15:31:24;;;;;;;41.15;20.92;;;;;;;;;;5088374;28;20024;-73
2022/01/23 15:33:50;;;;;;;42.13;24.58;;;;;;;;;;5088210;28;20064;-73
2022/01/23 15:36:16;;;;;;;36.28;18.05;;;;;;;;;;5088594;28;20024;-72
2022/01/23 15:38:44;;;;;;;30.23;19.23;;;;;;;;;;5070235;28;20483;-72
2022/01/23 15:41:11;;;;;;;31.15;17.77;;;;;;;;;;5087821;28;20028;-72
2022/01/23 15:43:37;;;;;;;38.90;21.40;;;;;;;;;;5088677;28;20589;-73
2022/01/23 15:46:06;;;;;;;87.80;43.53;;;;;;;;;;5088229;28;20524;-72
2022/01/23 15:48:33;;;;;;;101.75;47.72;;;;;;;;;;5088645;28;20036;-72
2022/01/23 15:50:59;;;;;;;89.22;43.15;;;;;;;;;;5086242;28;20061;-73
2022/01/23 15:53:25;;;;;;;76.75;41.22;;;;;;;;;;5079621;28;20081;-72
2022/01/23 15:55:51;;;;;;;55.00;27.23;;;;;;;;;;5084802;28;20078;-73
2022/01/23 15:58:17;;;;;;;46.13;26.10;;;;;;;;;;5087098;28;20057;-73
2022/01/23 16:00:43;;;;;;;32.22;20.02;;;;;;;;;;5078674;28;20085;-72
2022/01/23 16:03:09;;;;;;;28.77;16.48;;;;;;;;;;5087383;28;20702;-72
2022/01/23 16:05:35;;;;;;;30.17;18.08;;;;;;;;;;5089161;28;20378;-73
2022/01/23 16:08:02;;;;;;;35.05;22.83;;;;;;;;;;5080177;28;20036;-73
2022/01/23 16:10:28;;;;;;;44.75;29.80;;;;;;;;;;5076883;28;20075;-73
2022/01/23 16:12:54;;;;;;;50.85;32.75;;;;;;;;;;5078200;28;20036;-74
2022/01/23 16:15:21;;;;;;;52.60;31.85;;;;;;;;;;5090669;28;20385;-73
2022/01/23 16:17:48;;;;;;;50.33;30.70;;;;;;;;;;5085766;28;20060;-73
2022/01/23 16:20:15;;;;;;;54.25;32.88;;;;;;;;;;5071926;28;20090;-73
2022/01/23 16:22:42;;;;;;;49.88;30.23;;;;;;;;;;5080441;28;20119;-73
2022/01/23 16:25:08;;;;;;;53.95;31.35;;;;;;;;;;5090636;28;20028;-73
2022/01/23 16:27:35;;;;;;;50.40;32.08;;;;;;;;;;5090344;28;20042;-73
2022/01/23 16:30:01;;;;;;;56.60;36.95;;;;;;;;;;5090972;28;20040;-73
2022/01/23 16:32:27;;;;;;;47.95;31.48;;;;;;;;;;5091106;28;20086;-73
2022/01/23 16:34:53;;;;;;;46.28;29.33;;;;;;;;;;5090476;28;20443;-73
2022/01/23 16:37:19;;;;;;;47.38;31.33;;;;;;;;;;5091343;28;20063;-73
2022/01/23 16:39:45;;;;;;;48.42;32.75;;;;;;;;;;5090807;28;20372;-73
2022/01/23 16:42:11;;;;;;;52.13;32.08;;;;;;;;;;5090812;28;20040;-73
2022/01/23 16:44:37;;;;;;;52.58;34.53;;;;;;;;;;5082358;28;20032;-73
2022/01/23 16:47:04;;;;;;;51.92;32.88;;;;;;;;;;5084532;28;20039;-73
2022/01/23 16:49:31;;;;;;;51.22;32.53;;;;;;;;;;5082502;28;20030;-74
2022/01/23 16:51:57;;;;;;;58.17;36.83;;;;;;;;;;5091537;28;20027;-73
2022/01/23 16:54:23;;;;;;;52.25;32.60;;;;;;;;;;5081793;28;20040;-74
2022/01/23 16:56:48;;;;;;;52.97;34.47;;;;;;;;;;5088329;28;20479;-73
2022/01/23 16:59:15;;;;;;;57.10;36.63;;;;;;;;;;5083865;28;20028;-73
2022/01/23 17:01:46;;;;;;;48.05;31.85;;;;;;;;;;5087385;28;20032;-73
2022/01/23 17:04:12;;;;;;;46.90;30.35;;;;;;;;;;5090847;28;20023;-73
2022/01/23 17:06:39;;;;;;;50.58;31.10;;;;;;;;;;5086213;28;20028;-73
2022/01/23 17:09:06;;;;;;;48.40;30.52;;;;;;;;;;5090312;28;20031;-73
2022/01/23 17:11:32;;;;;;;51.75;33.22;;;;;;;;;;5086804;28;20024;-73
2022/01/23 17:13:58;;;;;;;49.78;30.67;;;;;;;;;;5088089;28;20062;-73
2022/01/23 17:16:24;;;;;;;56.63;34.08;;;;;;;;;;5086223;28;20046;-73
2022/01/23 17:18:51;;;;;;;77.88;42.50;;;;;;;;;;5087818;28;20090;-73
2022/01/23 17:21:17;;;;;;;94.45;50.28;;;;;;;;;;5079564;28;20025;-73
2022/01/23 17:23:43;;;;;;;86.65;46.67;;;;;;;;;;5088990;28;20036;-73
2022/01/23 17:26:09;;;;;;;75.05;40.75;;;;;;;;;;5085404;28;20044;-73
2022/01/23 17:28:35;;;;;;;66.63;38.88;;;;;;;;;;5079972;28;20050;-73
2022/01/23 17:31:02;;;;;;;70.82;40.70;;;;;;;;;;5091163;28;20040;-73
2022/01/23 17:33:28;;;;;;;70.95;39.97;;;;;;;;;;5090281;28;20038;-73
2022/01/23 17:35:54;;;;;;;77.45;44.13;;;;;;;;;;5087079;28;20135;-73
2022/01/23 17:38:20;;;;;;;71.95;42.08;;;;;;;;;;5089849;28;20027;-73
2022/01/23 17:40:47;;;;;;;66.68;38.10;;;;;;;;;;5084819;28;20124;-73
2022/01/23 17:43:13;;;;;;;58.67;35.90;;;;;;;;;;5070430;28;20399;-72
2022/01/23 17:48:32;;;;;;;66.18;36.45;;;;;;;;;;5090763;28;20059;-72
2022/01/23 17:51:00;;;;;;;56.22;33.33;;;;;;;;;;5088933;28;20055;-72
2022/01/23 17:53:27;;;;;;;63.88;35.75;;;;;;;;;;5084770;28;20036;-72
2022/01/23 17:55:53;;;;;;;59.33;35.58;;;;;;;;;;5089950;28;20028;-72